createdAt,value
2023-04-02T00:00:09.946Z,91.56
2023-04-02T00:03:04.230Z,91.56
2023-04-02T00:05:51.736Z,91.30
2023-04-02T00:08:27.349Z,91.62
2023-04-02T00:11:00.220Z,91.29
2023-04-02T00:13:37.480Z,90.87
2023-04-02T00:16:11.434Z,91.23
2023-04-02T00:18:47.385Z,91.33
2023-04-02T00:21:26.645Z,90.86
2023-04-02T00:23:56.760Z,90.76
2023-04-02T00:26:30.724Z,90.97
2023-04-02T00:29:01.286Z,91.08
2023-04-02T00:31:30.660Z,90.74
2023-04-02T00:34:01.086Z,90.99
2023-04-02T00:36:34.166Z,91.18
2023-04-02T00:39:08.517Z,91.30
2023-04-02T00:41:39.014Z,91.32
2023-04-02T00:44:12.745Z,90.88
2023-04-02T00:46:47.469Z,91.08
2023-04-02T00:49:35.858Z,90.93
2023-04-02T00:52:07.990Z,91.18
2023-04-02T00:54:47.232Z,90.97
2023-04-02T00:57:21.148Z,91.05
2023-04-02T00:59:59.847Z,91.05
2023-04-02T01:02:34.364Z,90.90
2023-04-02T01:05:22.370Z,91.19
2023-04-02T01:08:16.602Z,90.96
2023-04-02T01:11:04.936Z,90.72
2023-04-02T01:13:58.247Z,90.98
2023-04-02T01:16:33.142Z,90.89
2023-04-02T01:19:20.208Z,90.78
2023-04-02T01:21:53.140Z,91.15
2023-04-02T01:24:24.862Z,90.93
2023-04-02T01:26:58.066Z,90.83
2023-04-02T01:29:34.545Z,90.74
2023-04-02T01:32:14.943Z,90.77
2023-04-02T01:34:46.598Z,90.39
2023-04-02T01:37:32.463Z,90.26
2023-04-02T01:40:21.637Z,90.44
2023-04-02T01:43:02.157Z,90.90
2023-04-02T01:45:31.546Z,90.56
2023-04-02T01:48:00.165Z,90.55
2023-04-02T01:50:39.125Z,90.44
2023-04-02T01:53:10.649Z,90.59
2023-04-02T01:55:38.814Z,90.68
2023-04-02T01:58:09.017Z,91.10
2023-04-02T02:00:45.482Z,90.69
2023-04-02T02:03:14.512Z,90.68
2023-04-02T02:05:43.254Z,90.51
2023-04-02T02:08:40.084Z,90.46
2023-04-02T02:11:16.485Z,90.41
2023-04-02T02:13:53.272Z,90.48
2023-04-02T02:16:22.519Z,89.81
2023-04-02T02:19:01.943Z,90.14
2023-04-02T02:21:39.652Z,90.20
2023-04-02T02:24:27.092Z,89.87
2023-04-02T02:27:12.489Z,89.68
2023-04-02T02:29:43.211Z,89.74
2023-04-02T02:32:13.263Z,89.57
2023-04-02T02:34:49.124Z,89.24
2023-04-02T02:37:25.883Z,89.36
2023-04-02T02:39:58.203Z,89.22
2023-04-02T02:42:30.943Z,89.14
2023-04-02T02:45:02.264Z,89.20
2023-04-02T02:47:35.016Z,89.00
2023-04-02T02:50:08.651Z,89.10
2023-04-02T02:52:38.522Z,89.06
2023-04-02T02:55:17.491Z,89.11
2023-04-02T02:58:07.169Z,88.91
2023-04-02T03:00:41.097Z,88.72
2023-04-02T03:03:31.510Z,88.71
2023-04-02T03:06:09.430Z,88.52
2023-04-02T03:08:47.414Z,88.89
2023-04-02T03:11:36.991Z,88.23
2023-04-02T03:14:35.082Z,87.93
2023-04-02T03:17:11.502Z,88.59
2023-04-02T03:20:08.826Z,88.16
2023-04-02T03:22:44.370Z,87.93
2023-04-02T03:25:21.581Z,87.78
2023-04-02T03:27:53.890Z,87.60
2023-04-02T03:30:51.766Z,87.88
2023-04-02T03:33:28.332Z,87.39
2023-04-02T03:36:06.384Z,87.37
2023-04-02T03:38:43.730Z,87.34
2023-04-02T03:41:19.870Z,87.36
2023-04-02T03:43:53.071Z,86.81
2023-04-02T03:46:31.322Z,86.90
2023-04-02T03:49:06.890Z,87.36
2023-04-02T03:51:42.488Z,86.27
2023-04-02T03:54:15.324Z,86.14
2023-04-02T03:56:47.671Z,86.31
2023-04-02T03:59:29.563Z,86.20
2023-04-02T04:02:25.661Z,86.31
2023-04-02T04:04:55.875Z,85.91
2023-04-02T04:07:35.776Z,85.82
2023-04-02T04:10:06.663Z,85.88
2023-04-02T04:12:46.432Z,86.33
2023-04-02T04:15:26.949Z,85.59
2023-04-02T04:18:05.006Z,85.84
2023-04-02T04:20:50.760Z,85.94
2023-04-02T04:23:32.505Z,85.84
2023-04-02T04:26:19.996Z,85.58
2023-04-02T04:29:00.305Z,85.67
2023-04-02T04:31:39.128Z,85.48
2023-04-02T04:34:46.878Z,85.91
2023-04-02T04:37:21.866Z,85.75
2023-04-02T04:40:02.224Z,85.79
2023-04-02T04:42:36.016Z,86.33
2023-04-02T04:45:23.223Z,86.49
2023-04-02T04:47:58.606Z,85.93
2023-04-02T04:50:53.233Z,86.00
2023-04-02T04:53:25.041Z,85.83
2023-04-02T04:56:03.472Z,85.85
2023-04-02T04:59:13.823Z,86.45
2023-04-02T05:01:50.945Z,85.84
2023-04-02T05:04:29.959Z,85.63
2023-04-02T05:07:28.575Z,85.25
2023-04-02T05:10:41.105Z,85.54
2023-04-02T05:13:18.893Z,85.50
2023-04-02T05:16:41.922Z,85.73
2023-04-02T05:19:28.853Z,85.33
2023-04-02T05:22:09.161Z,85.41
2023-04-02T05:24:58.635Z,85.06
2023-04-02T05:27:40.714Z,85.24
2023-04-02T05:30:32.853Z,84.95
2023-04-02T05:33:08.065Z,84.90
2023-04-02T05:35:45.127Z,84.20
2023-04-02T05:38:22.902Z,83.89
2023-04-02T05:40:59.915Z,84.30
2023-04-02T05:43:32.155Z,84.43
2023-04-02T05:46:08.084Z,84.00
2023-04-02T05:48:43.415Z,83.94
2023-04-02T05:51:19.013Z,84.16
2023-04-02T05:53:53.771Z,83.82
2023-04-02T05:56:32.130Z,83.78
2023-04-02T05:59:22.930Z,83.79
2023-04-02T06:02:08.049Z,83.67
2023-04-02T06:04:58.734Z,83.41
2023-04-02T06:07:53.017Z,83.42
2023-04-02T06:10:26.630Z,83.42
2023-04-02T06:13:00.367Z,83.43
2023-04-02T06:15:31.694Z,82.76
2023-04-02T06:18:28.878Z,82.00
2023-04-02T06:20:57.999Z,82.31
2023-04-02T06:23:54.131Z,82.49
2023-04-02T06:26:27.904Z,82.85
2023-04-02T06:29:03.164Z,82.54
2023-04-02T06:31:31.435Z,81.72
2023-04-02T06:34:00.625Z,81.77
2023-04-02T06:36:29.769Z,80.92
2023-04-02T06:39:08.315Z,80.82
2023-04-02T06:41:37.068Z,80.09
2023-04-02T06:44:28.313Z,80.37
2023-04-02T06:47:27.000Z,79.58
2023-04-02T06:50:19.036Z,80.15
2023-04-02T06:53:00.956Z,80.24
2023-04-02T06:55:54.857Z,79.62
2023-04-02T06:58:27.859Z,78.58
2023-04-02T07:00:56.419Z,78.49
2023-04-02T07:03:33.975Z,78.73
2023-04-02T07:06:20.055Z,78.71
2023-04-02T07:08:50.345Z,78.41
2023-04-02T07:11:22.089Z,78.87
2023-04-02T07:13:52.440Z,78.43
2023-04-02T07:16:27.140Z,79.47
2023-04-02T07:18:58.878Z,78.30
2023-04-02T07:21:28.942Z,78.12
2023-04-02T07:23:57.905Z,77.47
2023-04-02T07:26:28.060Z,77.41
2023-04-02T07:28:56.966Z,77.56
2023-04-02T07:31:28.012Z,77.92
2023-04-02T07:34:00.006Z,77.83
2023-04-02T07:36:29.419Z,77.28
2023-04-02T07:38:58.732Z,77.14
2023-04-02T07:41:27.706Z,76.98
2023-04-02T07:43:56.023Z,76.52
2023-04-02T07:46:24.688Z,76.66
2023-04-02T07:48:52.887Z,77.18
2023-04-02T07:51:23.978Z,76.50
2023-04-02T07:53:56.292Z,77.17
2023-04-02T07:56:25.911Z,77.10
2023-04-02T07:58:54.636Z,76.69
2023-04-02T08:01:28.239Z,76.75
2023-04-02T08:03:57.851Z,77.04
2023-04-02T08:06:26.161Z,76.39
2023-04-02T08:08:54.721Z,75.83
2023-04-02T08:11:22.924Z,75.94
2023-04-02T08:13:52.203Z,76.43
2023-04-02T08:16:20.516Z,76.54
2023-04-02T08:18:48.662Z,76.29
2023-04-02T08:21:17.163Z,75.65
2023-04-02T08:23:45.696Z,76.28
2023-04-02T08:26:18.618Z,76.12
2023-04-02T08:28:46.840Z,76.12
2023-04-02T08:31:15.139Z,75.62
2023-04-02T08:33:43.368Z,76.27
2023-04-02T08:36:17.303Z,75.99
2023-04-02T08:38:46.288Z,75.90
2023-04-02T08:41:23.330Z,75.17
2023-04-02T08:44:00.672Z,75.73
2023-04-02T08:46:48.451Z,75.39
2023-04-02T08:49:48.691Z,75.07
2023-04-02T08:52:27.041Z,74.36
2023-04-02T08:54:56.407Z,74.11
2023-04-02T08:57:45.559Z,74.20
2023-04-02T09:00:39.647Z,73.53
2023-04-02T09:03:15.663Z,73.64
2023-04-02T09:05:46.012Z,74.16
2023-04-02T09:08:20.773Z,73.56
2023-04-02T09:11:04.860Z,73.59
2023-04-02T09:13:37.727Z,72.43
2023-04-02T09:16:16.007Z,71.06
2023-04-02T09:18:45.434Z,71.56
2023-04-02T09:21:23.551Z,71.99
2023-04-02T09:23:51.731Z,70.78
2023-04-02T09:26:28.859Z,67.37
2023-04-02T09:29:26.540Z,67.65
2023-04-02T09:32:09.938Z,64.74
2023-04-02T09:34:38.045Z,62.63
2023-04-02T09:37:16.504Z,64.04
2023-04-02T09:39:44.784Z,63.26
2023-04-02T09:42:34.275Z,62.46
2023-04-02T09:45:22.057Z,60.62
2023-04-02T09:47:52.375Z,58.61
2023-04-02T09:50:33.785Z,58.12
2023-04-02T09:53:30.113Z,55.54
2023-04-02T09:56:10.113Z,55.71
2023-04-02T09:58:39.109Z,53.92
2023-04-02T10:01:28.411Z,52.17
2023-04-02T10:03:57.109Z,52.77
2023-04-02T10:06:27.592Z,53.34
2023-04-02T10:08:56.363Z,54.06
2023-04-02T10:11:46.148Z,50.69
2023-04-02T10:14:26.983Z,52.10
2023-04-02T10:17:05.667Z,50.57
2023-04-02T10:19:42.731Z,47.54
2023-04-02T10:22:15.877Z,48.05
2023-04-02T10:24:44.144Z,48.61
2023-04-02T10:27:37.768Z,49.17
2023-04-02T10:30:12.008Z,48.00
2023-04-02T10:33:22.318Z,49.21
2023-04-02T10:36:09.335Z,48.00
2023-04-02T10:39:01.952Z,48.58
2023-04-02T10:42:14.016Z,46.40
2023-04-02T10:44:56.002Z,47.24
2023-04-02T10:47:38.181Z,46.32
2023-04-02T10:50:27.924Z,45.58
2023-04-02T10:53:32.958Z,46.82
2023-04-02T10:56:08.874Z,47.89
2023-04-02T10:58:51.286Z,49.23
2023-04-02T11:01:24.881Z,47.09
2023-04-02T11:03:57.858Z,47.44
2023-04-02T11:06:38.783Z,45.67
2023-04-02T11:09:23.640Z,44.60
2023-04-02T11:11:56.235Z,46.89
2023-04-02T11:14:26.901Z,44.38
2023-04-02T11:16:59.146Z,42.59
2023-04-02T11:19:32.756Z,42.08
2023-04-02T11:22:06.733Z,43.89
2023-04-02T11:24:38.182Z,44.93
2023-04-02T11:27:12.342Z,46.58
2023-04-02T11:29:46.848Z,45.64
2023-04-02T11:32:25.441Z,46.06
2023-04-02T11:35:06.324Z,44.93
2023-04-02T11:37:38.578Z,43.94
2023-04-02T11:40:13.926Z,43.33
2023-04-02T11:42:42.273Z,43.06
2023-04-02T11:45:28.380Z,44.53
2023-04-02T11:48:03.903Z,45.65
2023-04-02T11:50:38.797Z,45.27
2023-04-02T11:53:14.835Z,45.38
2023-04-02T11:56:05.980Z,46.20
2023-04-02T11:59:12.209Z,47.20
2023-04-02T12:02:01.491Z,47.25
2023-04-02T12:04:57.776Z,48.09
2023-04-02T12:07:52.521Z,47.35
2023-04-02T12:10:24.431Z,46.69
2023-04-02T12:12:52.709Z,46.49
2023-04-02T12:15:26.502Z,45.20
2023-04-02T12:18:06.627Z,45.31
2023-04-02T12:20:35.321Z,45.61
2023-04-02T12:23:03.824Z,44.64
2023-04-02T12:25:40.875Z,43.67
2023-04-02T12:28:18.658Z,42.18
2023-04-02T12:30:51.859Z,41.92
2023-04-02T12:33:20.008Z,40.84
2023-04-02T12:35:50.845Z,41.68
2023-04-02T12:38:25.300Z,41.39
2023-04-02T12:40:56.418Z,41.43
2023-04-02T12:43:29.334Z,40.18
2023-04-02T12:46:04.296Z,40.46
2023-04-02T12:48:34.919Z,40.67
2023-04-02T12:51:04.473Z,42.16
2023-04-02T12:53:36.540Z,40.43
2023-04-02T12:56:06.260Z,38.71
2023-04-02T12:58:42.900Z,39.28
2023-04-02T13:01:18.500Z,39.34
2023-04-02T13:04:15.076Z,39.20
2023-04-02T13:06:57.536Z,38.59
2023-04-02T13:09:28.831Z,39.57
2023-04-02T13:11:57.930Z,40.45
2023-04-02T13:14:26.729Z,38.75
2023-04-02T13:16:56.026Z,36.43
2023-04-02T13:19:33.513Z,37.72
2023-04-02T13:22:04.041Z,37.27
2023-04-02T13:24:33.764Z,37.80
2023-04-02T13:27:03.674Z,38.24
2023-04-02T13:29:34.394Z,38.53
2023-04-02T13:32:08.044Z,37.65
2023-04-02T13:34:36.073Z,38.04
2023-04-02T13:37:04.296Z,37.53
2023-04-02T13:39:32.507Z,36.78
2023-04-02T13:42:03.344Z,37.24
2023-04-02T13:44:33.993Z,37.75
2023-04-02T13:47:02.580Z,38.19
2023-04-02T13:49:31.882Z,36.32
2023-04-02T13:52:05.493Z,36.29
2023-04-02T13:54:39.410Z,37.69
2023-04-02T13:57:07.650Z,37.36
2023-04-02T13:59:36.164Z,37.18
2023-04-02T14:02:09.158Z,37.45
2023-04-02T14:04:50.657Z,37.10
2023-04-02T14:07:46.414Z,38.07
2023-04-02T14:10:43.544Z,38.41
2023-04-02T14:13:45.927Z,38.46
2023-04-02T14:16:39.273Z,38.41
2023-04-02T14:19:28.825Z,39.40
2023-04-02T14:22:02.631Z,40.47
2023-04-02T14:24:54.765Z,39.64
2023-04-02T14:27:45.480Z,40.14
2023-04-02T14:30:22.219Z,39.63
2023-04-02T14:32:59.520Z,40.22
2023-04-02T14:36:08.559Z,39.44
2023-04-02T14:38:38.066Z,39.60
2023-04-02T14:41:38.563Z,40.00
2023-04-02T14:44:09.335Z,40.12
2023-04-02T14:46:39.084Z,39.93
2023-04-02T14:49:20.947Z,39.84
2023-04-02T14:51:54.980Z,40.79
2023-04-02T14:54:29.073Z,40.51
2023-04-02T14:57:21.721Z,39.26
2023-04-02T15:00:00.628Z,39.53
2023-04-02T15:02:41.758Z,39.07
2023-04-02T15:05:17.827Z,39.90
2023-04-02T15:07:52.502Z,40.34
2023-04-02T15:10:29.864Z,40.26
2023-04-02T15:13:00.197Z,39.87
2023-04-02T15:15:40.478Z,39.82
2023-04-02T15:18:15.418Z,40.42
2023-04-02T15:21:09.673Z,40.70
2023-04-02T15:24:02.476Z,41.02
2023-04-02T15:27:38.708Z,41.61
2023-04-02T15:30:13.016Z,41.78
2023-04-02T15:32:43.492Z,41.88
2023-04-02T15:35:32.872Z,42.86
2023-04-02T15:38:26.140Z,43.80
2023-04-02T15:41:23.711Z,43.70
2023-04-02T15:44:10.084Z,43.71
2023-04-02T15:47:01.490Z,44.00
2023-04-02T15:49:48.121Z,44.12
2023-04-02T15:52:34.212Z,44.58
2023-04-02T15:55:37.731Z,45.55
2023-04-02T15:58:14.387Z,45.24
2023-04-02T16:01:10.527Z,44.87
2023-04-02T16:03:57.129Z,45.71
2023-04-02T16:06:40.520Z,46.26
2023-04-02T16:09:21.132Z,46.61
2023-04-02T16:11:57.391Z,46.71
2023-04-02T16:14:29.427Z,48.17
2023-04-02T16:17:17.674Z,49.62
2023-04-02T16:20:10.629Z,51.05
2023-04-02T16:22:53.425Z,52.39
2023-04-02T16:25:34.563Z,53.03
2023-04-02T16:28:19.476Z,54.14
2023-04-02T16:30:56.161Z,54.75
2023-04-02T16:34:06.119Z,55.74
2023-04-02T16:36:43.214Z,56.49
2023-04-02T16:39:16.699Z,57.09
2023-04-02T16:41:44.695Z,58.37
2023-04-02T16:44:57.722Z,58.52
2023-04-02T16:47:47.715Z,59.65
2023-04-02T16:50:30.975Z,59.87
2023-04-02T16:53:17.874Z,60.03
2023-04-02T16:56:04.850Z,59.82
2023-04-02T16:59:11.009Z,60.37
2023-04-02T17:01:57.462Z,60.94
2023-04-02T17:04:48.736Z,61.66
2023-04-02T17:07:29.192Z,61.80
2023-04-02T17:10:18.868Z,61.81
2023-04-02T17:12:53.125Z,62.42
2023-04-02T17:15:28.628Z,62.41
2023-04-02T17:18:02.075Z,62.42
2023-04-02T17:20:30.457Z,62.62
2023-04-02T17:22:59.111Z,62.37
2023-04-02T17:25:34.087Z,63.14
2023-04-02T17:28:04.126Z,63.01
2023-04-02T17:30:38.384Z,63.18
2023-04-02T17:33:19.476Z,62.61
2023-04-02T17:36:00.140Z,63.18
2023-04-02T17:38:47.243Z,63.42
2023-04-02T17:41:30.653Z,63.59
2023-04-02T17:44:19.588Z,64.37
2023-04-02T17:46:59.947Z,64.24
2023-04-02T17:49:41.860Z,64.01
2023-04-02T17:52:22.213Z,64.47
2023-04-02T17:55:27.942Z,64.75
2023-04-02T17:58:07.968Z,64.62
2023-04-02T18:01:06.796Z,65.07
2023-04-02T18:03:34.917Z,65.05
2023-04-02T18:06:25.089Z,65.17
2023-04-02T18:08:53.104Z,65.76
2023-04-02T18:12:11.768Z,66.06
2023-04-02T18:14:52.449Z,66.45
2023-04-02T18:17:46.200Z,66.73
2023-04-02T18:20:20.367Z,66.66
2023-04-02T18:23:16.543Z,66.55
2023-04-02T18:26:18.813Z,67.06
2023-04-02T18:28:55.868Z,66.44
2023-04-02T18:31:41.025Z,66.45
2023-04-02T18:34:21.231Z,66.69
2023-04-02T18:37:08.142Z,66.20
2023-04-02T18:39:54.407Z,66.99
2023-04-02T18:42:44.905Z,67.02
2023-04-02T18:45:23.038Z,67.16
2023-04-02T18:47:59.976Z,67.29
2023-04-02T18:50:35.395Z,66.77
2023-04-02T18:53:16.751Z,66.95
2023-04-02T18:56:08.223Z,67.15
2023-04-02T18:58:49.574Z,67.65
2023-04-02T19:01:26.250Z,67.43
2023-04-02T19:04:12.789Z,67.40
2023-04-02T19:06:57.120Z,67.60
2023-04-02T19:09:38.502Z,67.44
2023-04-02T19:12:21.326Z,67.60
2023-04-02T19:14:51.131Z,67.91
2023-04-02T19:17:31.745Z,68.36
2023-04-02T19:20:27.896Z,68.59
2023-04-02T19:23:02.239Z,68.67
2023-04-02T19:25:47.150Z,68.53
2023-04-02T19:28:44.453Z,69.19
2023-04-02T19:31:32.948Z,68.91
2023-04-02T19:34:19.863Z,69.24
2023-04-02T19:37:01.471Z,69.46
2023-04-02T19:39:32.337Z,69.55
2023-04-02T19:42:24.917Z,69.64
2023-04-02T19:44:54.217Z,69.98
2023-04-02T19:47:24.679Z,70.23
2023-04-02T19:49:52.994Z,70.36
2023-04-02T19:52:21.316Z,70.21
2023-04-02T19:54:49.446Z,69.91
2023-04-02T19:57:17.809Z,70.15
2023-04-02T19:59:46.116Z,70.05
2023-04-02T20:02:14.350Z,70.20
2023-04-02T20:04:42.661Z,69.85
2023-04-02T20:07:10.867Z,70.58
2023-04-02T20:09:39.142Z,70.52
2023-04-02T20:12:07.317Z,70.40
2023-04-02T20:14:35.472Z,70.57
2023-04-02T20:17:03.762Z,70.84
2023-04-02T20:19:32.097Z,70.68
2023-04-02T20:22:00.189Z,71.07
2023-04-02T20:24:28.424Z,71.02
2023-04-02T20:26:56.548Z,71.15
2023-04-02T20:29:28.126Z,71.00
2023-04-02T20:31:56.595Z,71.30
2023-04-02T20:34:25.492Z,70.97
2023-04-02T20:36:53.849Z,71.27
2023-04-02T20:39:22.117Z,71.11
2023-04-02T20:41:50.225Z,71.52
2023-04-02T20:44:18.316Z,71.38
2023-04-02T20:46:46.426Z,71.26
2023-04-02T20:49:14.618Z,71.68
2023-04-02T20:51:42.835Z,71.62
2023-04-02T20:54:10.937Z,71.83
2023-04-02T20:56:39.172Z,72.13
2023-04-02T20:59:07.328Z,72.31
2023-04-02T21:01:36.554Z,72.41
2023-04-02T21:04:05.028Z,72.48
2023-04-02T21:06:36.846Z,72.42
2023-04-02T21:09:08.608Z,72.52
2023-04-02T21:11:37.129Z,72.37
2023-04-02T21:14:05.597Z,72.63
2023-04-02T21:16:33.959Z,72.68
2023-04-02T21:19:07.865Z,72.95
2023-04-02T21:21:38.375Z,72.84
2023-04-02T21:24:08.548Z,73.27
2023-04-02T21:26:39.330Z,73.34
2023-04-02T21:29:08.042Z,73.12
2023-04-02T21:31:38.625Z,73.47
2023-04-02T21:34:09.331Z,73.47
2023-04-02T21:36:42.119Z,73.48
2023-04-02T21:39:13.135Z,73.37
2023-04-02T21:41:43.978Z,73.68
2023-04-02T21:44:16.850Z,73.83
2023-04-02T21:46:45.888Z,73.86
2023-04-02T21:49:17.273Z,73.77
2023-04-02T21:51:46.804Z,73.71
2023-04-02T21:54:15.806Z,73.96
2023-04-02T21:56:45.979Z,73.97
2023-04-02T21:59:16.711Z,73.93
2023-04-02T22:01:48.396Z,74.02
2023-04-02T22:04:25.045Z,74.24
2023-04-02T22:06:53.535Z,74.23
2023-04-02T22:09:24.381Z,73.93
2023-04-02T22:11:56.233Z,74.03
2023-04-02T22:14:24.810Z,73.79
2023-04-02T22:16:53.146Z,74.04
2023-04-02T22:19:21.540Z,74.17
2023-04-02T22:21:49.950Z,74.00
2023-04-02T22:24:19.076Z,74.04
2023-04-02T22:26:47.335Z,73.96
2023-04-02T22:29:16.510Z,73.87
2023-04-02T22:31:44.910Z,73.83
2023-04-02T22:34:13.206Z,73.72
2023-04-02T22:36:41.451Z,73.64
2023-04-02T22:39:12.386Z,73.47
2023-04-02T22:41:41.168Z,73.86
2023-04-02T22:44:15.200Z,73.78
2023-04-02T22:46:43.463Z,73.77
2023-04-02T22:49:11.880Z,73.58
2023-04-02T22:51:40.089Z,73.37
2023-04-02T22:54:08.288Z,73.29
2023-04-02T22:56:37.686Z,73.27
2023-04-02T22:59:06.138Z,73.23
2023-04-02T23:01:36.220Z,73.01
2023-04-02T23:04:05.522Z,72.96
2023-04-02T23:06:33.927Z,72.95
2023-04-02T23:09:02.124Z,72.59
2023-04-02T23:11:30.432Z,72.64
2023-04-02T23:13:59.227Z,72.54
2023-04-02T23:16:29.316Z,72.45
2023-04-02T23:18:58.179Z,72.35
2023-04-02T23:21:26.792Z,72.49
2023-04-02T23:23:55.580Z,72.28
2023-04-02T23:26:31.568Z,71.66
2023-04-02T23:29:00.903Z,71.46
2023-04-02T23:31:29.982Z,71.17
2023-04-02T23:33:58.804Z,70.94
2023-04-02T23:36:32.544Z,70.75
2023-04-02T23:39:04.951Z,70.66
2023-04-02T23:41:33.083Z,70.13
2023-04-02T23:44:01.678Z,69.96
2023-04-02T23:46:31.580Z,69.19
2023-04-02T23:49:00.685Z,68.80
2023-04-02T23:51:30.154Z,68.21
2023-04-02T23:53:58.609Z,68.17
2023-04-02T23:56:27.266Z,68.16
2023-04-02T23:58:55.481Z,67.59
